createdAt,value
2019-01-27T00:01:27.772Z,4.30
2019-01-27T00:03:55.689Z,4.40
2019-01-27T00:06:23.576Z,4.40
2019-01-27T00:08:52.124Z,4.40
2019-01-27T00:11:20.292Z,4.40
2019-01-27T00:13:48.368Z,4.40
2019-01-27T00:18:51.336Z,4.50
2019-01-27T00:21:18.567Z,4.70
2019-01-27T00:23:45.791Z,4.60
2019-01-27T00:26:13.060Z,4.50
2019-01-27T00:28:40.311Z,4.60
2019-01-27T00:31:07.563Z,4.60
2019-01-27T00:33:35.120Z,4.70
2019-01-27T00:36:02.469Z,4.60
2019-01-27T00:38:30.066Z,4.70
2019-01-27T00:40:57.350Z,4.60
2019-01-27T00:43:24.591Z,4.50
2019-01-27T00:45:51.846Z,4.60
2019-01-27T00:48:19.080Z,4.60
2019-01-27T00:50:46.338Z,4.70
2019-01-27T00:53:13.607Z,4.60
2019-01-27T00:55:40.836Z,4.70
2019-01-27T00:58:08.072Z,4.70
2019-01-27T01:00:48.187Z,4.70
2019-01-27T01:03:16.595Z,4.70
2019-01-27T01:05:43.930Z,4.70
2019-01-27T01:08:11.175Z,4.70
2019-01-27T01:10:38.419Z,4.70
2019-01-27T01:13:05.772Z,4.60
2019-01-27T01:15:33.110Z,4.60
2019-01-27T01:18:00.342Z,4.70
2019-01-27T01:20:27.600Z,4.50
2019-01-27T01:22:55.061Z,4.50
2019-01-27T01:25:22.594Z,4.60
2019-01-27T01:27:50.719Z,4.60
2019-01-27T01:30:20.181Z,4.50
2019-01-27T01:32:47.476Z,4.50
2019-01-27T01:35:14.708Z,4.50
2019-01-27T01:37:45.536Z,4.60
2019-01-27T01:40:15.217Z,4.80
2019-01-27T01:42:42.860Z,4.60
2019-01-27T01:45:14.420Z,4.80
2019-01-27T01:47:41.655Z,4.80
2019-01-27T01:50:08.923Z,4.80
2019-01-27T01:52:36.171Z,4.80
2019-01-27T01:55:04.432Z,4.90
2019-01-27T01:57:32.049Z,5.10
2019-01-27T01:59:59.718Z,5.00
2019-01-27T02:02:27.166Z,5.00
2019-01-27T02:04:54.408Z,5.00
2019-01-27T02:07:21.645Z,5.00
2019-01-27T02:09:48.897Z,5.00
2019-01-27T02:12:16.557Z,5.10
2019-01-27T02:14:43.800Z,5.20
2019-01-27T02:17:11.058Z,5.20
2019-01-27T02:19:38.383Z,5.20
2019-01-27T02:22:05.887Z,5.20
2019-01-27T02:24:33.141Z,5.10
2019-01-27T02:27:00.731Z,5.10
2019-01-27T02:29:28.047Z,5.00
2019-01-27T02:31:55.521Z,5.00
2019-01-27T02:34:22.746Z,5.10
2019-01-27T02:36:50.010Z,5.20
2019-01-27T02:39:17.271Z,5.10
2019-01-27T02:41:44.603Z,5.20
2019-01-27T02:44:11.835Z,5.20
2019-01-27T02:46:39.071Z,5.20
2019-01-27T02:49:06.290Z,5.20
2019-01-27T02:51:33.510Z,5.20
2019-01-27T02:54:00.763Z,5.10
2019-01-27T02:56:27.990Z,5.20
2019-01-27T02:58:55.257Z,5.10
2019-01-27T03:01:22.480Z,5.10
2019-01-27T03:03:49.771Z,5.10
2019-01-27T03:06:45.822Z,5.10
2019-01-27T03:09:20.909Z,5.00
2019-01-27T03:11:49.556Z,5.10
2019-01-27T03:14:18.316Z,5.10
2019-01-27T03:16:46.880Z,5.10
2019-01-27T03:19:14.575Z,5.10
2019-01-27T03:21:42.159Z,5.10
2019-01-27T03:24:09.388Z,5.10
2019-01-27T03:26:36.670Z,5.10
2019-01-27T03:29:04.009Z,5.10
2019-01-27T03:31:31.606Z,5.00
2019-01-27T03:33:58.863Z,5.10
2019-01-27T03:36:26.123Z,5.20
2019-01-27T03:38:53.347Z,5.20
2019-01-27T03:41:20.584Z,5.10
2019-01-27T03:43:47.883Z,5.10
2019-01-27T03:46:15.261Z,5.10
2019-01-27T03:48:42.475Z,5.00
2019-01-27T03:51:09.781Z,5.10
2019-01-27T03:53:37.031Z,5.00
2019-01-27T03:56:04.512Z,5.10
2019-01-27T03:58:31.807Z,5.10
2019-01-27T04:00:59.048Z,5.10
2019-01-27T04:03:26.307Z,4.90
2019-01-27T04:05:53.627Z,4.90
2019-01-27T04:08:21.071Z,5.00
2019-01-27T04:10:48.416Z,5.00
2019-01-27T04:13:15.684Z,4.90
2019-01-27T04:15:42.907Z,5.00
2019-01-27T04:18:10.239Z,4.90
2019-01-27T04:20:37.569Z,5.00
2019-01-27T04:23:04.795Z,5.00
2019-01-27T04:25:53.638Z,4.90
2019-01-27T04:28:20.892Z,4.90
2019-01-27T04:30:48.135Z,5.00
2019-01-27T04:33:15.388Z,5.00
2019-01-27T04:35:42.640Z,5.00
2019-01-27T04:38:09.872Z,4.90
2019-01-27T04:40:37.132Z,4.90
2019-01-27T04:43:04.359Z,4.90
2019-01-27T04:45:33.847Z,4.80
2019-01-27T04:48:01.198Z,5.00
2019-01-27T04:50:28.514Z,4.90
2019-01-27T04:52:55.910Z,5.00
2019-01-27T04:55:26.163Z,4.80
2019-01-27T04:57:53.422Z,4.80
2019-01-27T05:00:22.400Z,4.70
2019-01-27T05:02:54.634Z,4.90
2019-01-27T05:05:22.431Z,4.90
2019-01-27T05:07:49.735Z,4.90
2019-01-27T05:10:16.975Z,4.80
2019-01-27T05:12:44.223Z,4.90
2019-01-27T05:15:12.577Z,4.90
2019-01-27T05:17:39.844Z,4.90
2019-01-27T05:20:07.783Z,4.80
2019-01-27T05:22:35.015Z,4.80
2019-01-27T05:25:03.312Z,5.00
2019-01-27T05:27:30.624Z,4.90
2019-01-27T05:29:57.843Z,4.90
2019-01-27T05:32:25.075Z,4.80
2019-01-27T05:34:52.307Z,4.90
2019-01-27T05:37:19.554Z,4.80
2019-01-27T05:39:46.927Z,4.90
2019-01-27T05:42:14.179Z,4.90
2019-01-27T05:44:41.398Z,4.90
2019-01-27T05:47:08.682Z,5.00
2019-01-27T05:49:35.997Z,5.00
2019-01-27T05:52:03.260Z,4.90
2019-01-27T05:54:30.523Z,4.90
2019-01-27T05:56:57.756Z,4.90
2019-01-27T05:59:25.073Z,5.10
2019-01-27T06:01:52.302Z,5.00
2019-01-27T06:04:19.555Z,5.10
2019-01-27T06:06:46.831Z,5.10
2019-01-27T06:09:14.081Z,5.00
2019-01-27T06:11:41.311Z,5.10
2019-01-27T06:14:08.561Z,5.00
2019-01-27T06:16:35.800Z,5.00
2019-01-27T06:19:03.671Z,5.10
2019-01-27T06:21:30.958Z,5.00
2019-01-27T06:23:58.201Z,5.10
2019-01-27T06:26:25.747Z,5.10
2019-01-27T06:28:52.975Z,5.00
2019-01-27T06:31:20.227Z,5.00
2019-01-27T06:33:52.423Z,4.90
2019-01-27T06:36:19.844Z,5.00
2019-01-27T06:38:47.102Z,5.10
2019-01-27T06:41:14.373Z,5.10
2019-01-27T06:43:42.134Z,5.00
2019-01-27T06:46:09.555Z,5.10
2019-01-27T06:48:36.948Z,5.10
2019-01-27T06:51:04.215Z,5.00
2019-01-27T06:53:31.496Z,5.00
2019-01-27T06:55:58.950Z,4.90
2019-01-27T06:58:46.153Z,5.00
2019-01-27T07:01:35.575Z,5.00
2019-01-27T07:04:10.122Z,5.10
2019-01-27T07:07:01.662Z,4.90
2019-01-27T07:09:39.700Z,4.90
2019-01-27T07:12:41.591Z,5.10
2019-01-27T07:15:35.800Z,5.10
2019-01-27T07:18:23.150Z,5.10
2019-01-27T07:20:56.580Z,5.10
2019-01-27T07:23:39.400Z,5.20
2019-01-27T07:26:24.415Z,5.10
2019-01-27T07:29:11.239Z,5.10
2019-01-27T07:31:50.414Z,5.20
2019-01-27T07:34:49.371Z,5.20
2019-01-27T07:37:37.324Z,5.10
2019-01-27T07:40:12.302Z,5.30
2019-01-27T07:43:04.901Z,5.30
2019-01-27T07:45:37.132Z,5.20
2019-01-27T07:48:23.041Z,5.20
2019-01-27T07:51:12.343Z,5.30
2019-01-27T07:53:58.347Z,5.40
2019-01-27T07:56:43.824Z,5.40
2019-01-27T07:59:36.307Z,5.40
2019-01-27T08:02:26.814Z,5.50
2019-01-27T08:05:13.647Z,5.50
2019-01-27T08:08:03.167Z,5.50
2019-01-27T08:10:45.792Z,5.60
2019-01-27T08:13:32.539Z,5.60
2019-01-27T08:16:19.300Z,5.50
2019-01-27T08:19:05.231Z,5.50
2019-01-27T08:21:51.528Z,5.70
2019-01-27T08:24:43.911Z,5.80
2019-01-27T08:27:24.204Z,5.80
2019-01-27T08:30:09.972Z,5.80
2019-01-27T08:33:02.969Z,5.90
2019-01-27T08:35:40.328Z,5.80
2019-01-27T08:38:29.886Z,6.00
2019-01-27T08:41:04.446Z,6.00
2019-01-27T08:43:51.267Z,6.00
2019-01-27T08:46:23.936Z,6.10
2019-01-27T08:48:51.295Z,6.20
2019-01-27T08:51:18.579Z,6.20
2019-01-27T08:53:45.907Z,6.30
2019-01-27T08:56:13.264Z,6.50
2019-01-27T08:58:40.627Z,6.70
2019-01-27T09:01:16.336Z,6.70
2019-01-27T09:03:56.598Z,6.50
2019-01-27T09:06:31.569Z,6.50
2019-01-27T09:09:18.780Z,6.30
2019-01-27T09:12:05.529Z,6.40
2019-01-27T09:14:52.383Z,6.30
2019-01-27T09:17:54.273Z,6.20
2019-01-27T09:20:44.027Z,6.30
2019-01-27T09:23:39.694Z,6.20
2019-01-27T09:26:41.664Z,6.20
2019-01-27T09:29:12.948Z,6.10
2019-01-27T09:31:58.472Z,6.10
2019-01-27T09:35:00.618Z,6.20
2019-01-27T09:37:47.384Z,6.40
2019-01-27T09:40:52.563Z,6.40
2019-01-27T09:43:29.978Z,6.40
2019-01-27T09:46:15.731Z,6.40
2019-01-27T09:49:15.367Z,6.50
2019-01-27T09:51:53.545Z,6.50
2019-01-27T09:54:40.439Z,6.50
2019-01-27T09:57:18.211Z,6.40
2019-01-27T09:59:58.143Z,6.50
2019-01-27T10:02:34.965Z,6.60
2019-01-27T10:05:15.722Z,6.70
2019-01-27T10:07:59.830Z,6.80
2019-01-27T10:11:02.282Z,6.80
2019-01-27T10:13:51.514Z,6.80
2019-01-27T10:16:38.355Z,6.60
2019-01-27T10:19:27.358Z,6.70
2019-01-27T10:22:00.664Z,6.90
2019-01-27T10:25:02.485Z,7.00
2019-01-27T10:27:51.899Z,7.00
2019-01-27T10:30:44.236Z,7.20
2019-01-27T10:33:26.563Z,7.20
2019-01-27T10:36:28.606Z,7.10
2019-01-27T10:39:22.198Z,7.10
2019-01-27T10:41:57.727Z,7.20
2019-01-27T10:44:37.994Z,7.40
2019-01-27T10:47:33.647Z,7.40
2019-01-27T10:50:18.995Z,7.30
2019-01-27T10:53:08.791Z,7.20
2019-01-27T10:55:50.353Z,7.40
2019-01-27T10:58:27.332Z,7.30
2019-01-27T11:01:06.378Z,7.40
2019-01-27T11:03:51.920Z,7.20
2019-01-27T11:06:38.703Z,7.30
2019-01-27T11:09:39.228Z,7.50
2019-01-27T11:12:26.171Z,7.50
2019-01-27T11:15:22.997Z,7.60
2019-01-27T11:18:24.709Z,7.80
2019-01-27T11:21:29.900Z,7.60
2019-01-27T11:24:16.271Z,7.70
2019-01-27T11:27:05.899Z,7.60
2019-01-27T11:29:41.839Z,7.60
2019-01-27T11:32:28.369Z,7.60
2019-01-27T11:35:17.994Z,7.50
2019-01-27T11:38:07.475Z,7.60
2019-01-27T11:41:00.529Z,7.60
2019-01-27T11:43:35.059Z,7.50
2019-01-27T11:46:12.145Z,7.70
2019-01-27T11:49:01.863Z,7.70
2019-01-27T11:51:48.653Z,7.80
2019-01-27T11:54:16.106Z,7.80
2019-01-27T11:56:43.355Z,8.50
2019-01-27T11:59:10.575Z,8.90
2019-01-27T12:01:37.832Z,8.70
2019-01-27T12:04:05.172Z,8.50
2019-01-27T12:06:32.525Z,8.50
2019-01-27T12:08:59.828Z,8.50
2019-01-27T12:11:27.279Z,8.50
2019-01-27T12:13:54.644Z,8.50
2019-01-27T12:16:22.044Z,8.50
2019-01-27T12:18:49.891Z,8.20
2019-01-27T12:21:17.367Z,8.00
2019-01-27T12:23:44.791Z,7.70
2019-01-27T12:26:12.063Z,7.70
2019-01-27T12:28:39.555Z,7.70
2019-01-27T12:31:06.788Z,7.50
2019-01-27T12:33:34.098Z,7.40
2019-01-27T12:36:01.432Z,7.20
2019-01-27T12:38:28.691Z,6.90
2019-01-27T12:40:55.923Z,7.00
2019-01-27T12:43:23.146Z,7.00
2019-01-27T12:45:50.444Z,7.10
2019-01-27T12:48:17.899Z,7.00
2019-01-27T12:50:45.452Z,7.10
2019-01-27T12:53:12.720Z,7.00
2019-01-27T12:55:40.228Z,7.00
2019-01-27T12:58:07.602Z,7.00
2019-01-27T13:00:37.983Z,7.00
2019-01-27T13:03:05.289Z,7.00
2019-01-27T13:05:32.693Z,7.00
2019-01-27T13:08:05.956Z,7.10
2019-01-27T13:10:33.455Z,7.00
2019-01-27T13:13:00.853Z,7.10
2019-01-27T13:15:28.288Z,7.00
2019-01-27T13:17:55.739Z,6.80
2019-01-27T13:20:23.093Z,6.90
2019-01-27T13:22:50.361Z,6.90
2019-01-27T13:25:17.746Z,6.90
2019-01-27T13:27:44.985Z,6.90
2019-01-27T13:30:18.151Z,6.90
2019-01-27T13:32:45.408Z,7.00
2019-01-27T13:35:13.029Z,7.00
2019-01-27T13:37:40.302Z,7.20
2019-01-27T13:40:15.212Z,7.20
2019-01-27T13:42:46.095Z,7.10
2019-01-27T13:45:16.282Z,7.00
2019-01-27T13:47:43.623Z,7.20
2019-01-27T13:50:11.183Z,7.00
2019-01-27T13:52:39.524Z,7.40
2019-01-27T13:55:10.203Z,7.30
2019-01-27T13:57:37.504Z,7.50
2019-01-27T14:00:07.957Z,7.60
2019-01-27T14:02:35.340Z,7.70
2019-01-27T14:05:02.800Z,7.70
2019-01-27T14:07:30.221Z,7.70
2019-01-27T14:09:57.599Z,7.60
2019-01-27T14:12:24.896Z,7.50
2019-01-27T14:14:52.175Z,7.60
2019-01-27T14:17:19.465Z,7.60
2019-01-27T14:19:46.750Z,7.60
2019-01-27T14:22:14.007Z,7.50
2019-01-27T14:24:41.691Z,7.60
2019-01-27T14:27:08.915Z,7.50
2019-01-27T14:29:36.227Z,7.60
2019-01-27T14:32:03.919Z,7.60
2019-01-27T14:34:31.197Z,7.50
2019-01-27T14:36:58.426Z,7.60
2019-01-27T14:39:25.730Z,7.50
2019-01-27T14:41:53.000Z,7.40
2019-01-27T14:44:20.263Z,7.40
2019-01-27T14:46:47.532Z,7.50
2019-01-27T14:49:14.824Z,7.50
2019-01-27T14:51:42.095Z,7.40
2019-01-27T14:54:09.642Z,7.30
2019-01-27T14:56:36.991Z,7.30
2019-01-27T14:59:04.310Z,7.20
2019-01-27T15:01:31.911Z,7.40
2019-01-27T15:03:59.230Z,7.30
2019-01-27T15:06:26.548Z,7.40
2019-01-27T15:08:53.884Z,7.30
2019-01-27T15:11:21.226Z,7.20
2019-01-27T15:13:48.539Z,7.30
2019-01-27T15:16:15.908Z,7.30
2019-01-27T15:18:43.252Z,7.20
2019-01-27T15:21:15.081Z,7.20
2019-01-27T15:23:42.959Z,7.30
2019-01-27T15:26:10.377Z,7.30
2019-01-27T15:28:37.683Z,7.20
2019-01-27T15:31:04.966Z,7.30
2019-01-27T15:33:32.211Z,7.30
2019-01-27T15:35:59.492Z,7.20
2019-01-27T15:38:26.943Z,7.20
2019-01-27T15:40:54.313Z,7.20
2019-01-27T15:43:21.731Z,6.90
2019-01-27T15:45:49.022Z,7.00
2019-01-27T15:48:19.009Z,7.00
2019-01-27T15:50:46.306Z,7.10
2019-01-27T15:53:13.559Z,7.00
2019-01-27T15:55:40.873Z,7.10
2019-01-27T15:58:08.172Z,6.90
2019-01-27T16:00:35.465Z,7.00
2019-01-27T16:03:03.041Z,7.00
2019-01-27T16:05:30.304Z,7.10
2019-01-27T16:07:57.575Z,7.10
2019-01-27T16:10:24.872Z,7.00
2019-01-27T16:12:52.762Z,7.10
2019-01-27T16:15:30.709Z,6.90
2019-01-27T16:17:58.106Z,7.00
2019-01-27T16:20:26.219Z,7.00
2019-01-27T16:23:13.544Z,7.00
2019-01-27T16:25:41.518Z,7.00
2019-01-27T16:28:09.064Z,7.10
2019-01-27T16:30:46.029Z,7.00
2019-01-27T16:33:18.210Z,7.10
2019-01-27T16:35:45.448Z,7.00
2019-01-27T16:38:12.775Z,7.00
2019-01-27T16:40:40.073Z,7.00
2019-01-27T16:43:08.987Z,7.00
2019-01-27T16:45:36.511Z,7.00
2019-01-27T16:48:04.484Z,7.00
2019-01-27T16:50:31.861Z,7.00
2019-01-27T16:52:59.256Z,6.90
2019-01-27T16:55:26.660Z,6.90
2019-01-27T16:57:53.918Z,6.90
2019-01-27T17:00:23.723Z,6.90
2019-01-27T17:02:51.191Z,6.90
2019-01-27T17:05:18.591Z,7.00
2019-01-27T17:07:45.884Z,6.90
2019-01-27T17:10:14.212Z,6.90
2019-01-27T17:12:41.671Z,6.70
2019-01-27T17:15:10.134Z,6.70
2019-01-27T17:17:37.551Z,6.60
2019-01-27T17:20:06.451Z,6.70
2019-01-27T17:22:33.731Z,6.70
2019-01-27T17:25:01.020Z,6.70
2019-01-27T17:27:28.395Z,6.60
2019-01-27T17:29:55.659Z,6.50
2019-01-27T17:32:23.204Z,6.40
2019-01-27T17:34:50.492Z,6.40
2019-01-27T17:37:17.831Z,6.30
2019-01-27T17:39:45.160Z,6.30
2019-01-27T17:42:13.478Z,6.20
2019-01-27T17:44:40.820Z,6.30
2019-01-27T17:47:08.263Z,6.10
2019-01-27T17:49:35.497Z,6.10
2019-01-27T17:52:02.788Z,6.00
2019-01-27T17:54:30.111Z,6.00
2019-01-27T17:57:12.860Z,6.00
2019-01-27T17:59:49.951Z,6.00
2019-01-27T18:02:34.607Z,5.90
2019-01-27T18:05:19.598Z,5.80
2019-01-27T18:07:54.640Z,5.80
2019-01-27T18:10:59.352Z,5.80
2019-01-27T18:13:35.302Z,5.80
2019-01-27T18:16:03.557Z,5.70
2019-01-27T18:18:30.845Z,5.70
2019-01-27T18:20:58.174Z,5.70
2019-01-27T18:23:25.514Z,5.60
2019-01-27T18:25:52.907Z,5.70
2019-01-27T18:28:20.287Z,5.50
2019-01-27T18:30:47.601Z,5.50
2019-01-27T18:33:15.012Z,5.50
2019-01-27T18:35:42.543Z,5.50
2019-01-27T18:38:09.931Z,5.50
2019-01-27T18:40:37.186Z,5.50
2019-01-27T18:43:04.581Z,5.60
2019-01-27T18:45:31.988Z,5.40
2019-01-27T18:47:59.279Z,5.40
2019-01-27T18:50:26.615Z,5.50
2019-01-27T18:53:03.575Z,5.30
2019-01-27T18:55:49.844Z,5.30
2019-01-27T18:58:23.645Z,5.10
2019-01-27T19:01:09.665Z,5.10
2019-01-27T19:03:51.238Z,5.20
2019-01-27T19:06:38.008Z,5.20
2019-01-27T19:09:34.225Z,5.20
2019-01-27T19:12:21.246Z,5.30
2019-01-27T19:15:10.753Z,5.20
2019-01-27T19:17:57.536Z,5.20
2019-01-27T19:20:43.719Z,5.20
2019-01-27T19:23:21.640Z,5.20
2019-01-27T19:25:59.800Z,5.20
2019-01-27T19:28:34.948Z,5.30
2019-01-27T19:31:21.751Z,5.20
2019-01-27T19:34:14.335Z,5.20
2019-01-27T19:36:54.880Z,5.20
2019-01-27T19:39:33.096Z,5.10
2019-01-27T19:42:26.180Z,5.00
2019-01-27T19:45:11.536Z,5.00
2019-01-27T19:47:44.565Z,5.00
2019-01-27T19:50:46.559Z,5.00
2019-01-27T19:53:36.293Z,4.90
2019-01-27T19:56:41.759Z,4.90
2019-01-27T19:59:27.548Z,4.90
2019-01-27T20:02:10.707Z,4.90
2019-01-27T20:05:04.198Z,4.90
2019-01-27T20:07:53.971Z,4.80
2019-01-27T20:10:58.935Z,4.90
2019-01-27T20:13:49.230Z,4.90
2019-01-27T20:16:41.070Z,4.90
2019-01-27T20:19:17.386Z,4.80
2019-01-27T20:21:58.130Z,4.70
2019-01-27T20:24:47.706Z,4.60
2019-01-27T20:27:43.448Z,4.60
2019-01-27T20:30:29.788Z,4.70
2019-01-27T20:33:19.150Z,4.60
2019-01-27T20:36:08.826Z,4.40
2019-01-27T20:38:52.694Z,4.40
2019-01-27T20:41:42.274Z,4.40
2019-01-27T20:44:40.891Z,4.30
2019-01-27T20:47:27.663Z,4.20
2019-01-27T20:50:13.063Z,4.40
2019-01-27T20:53:08.468Z,4.30
2019-01-27T20:55:55.475Z,4.20
2019-01-27T20:58:51.562Z,4.10
2019-01-27T21:01:28.859Z,4.00
2019-01-27T21:04:06.444Z,4.10
2019-01-27T21:06:51.947Z,4.10
2019-01-27T21:09:28.132Z,4.20
2019-01-27T21:12:15.074Z,4.00
2019-01-27T21:15:04.887Z,4.10
2019-01-27T21:17:42.596Z,4.00
2019-01-27T21:20:16.283Z,4.00
2019-01-27T21:22:43.555Z,4.00
2019-01-27T21:25:11.449Z,3.90
2019-01-27T21:27:38.704Z,4.10
2019-01-27T21:30:08.951Z,3.90
2019-01-27T21:32:36.505Z,4.00
2019-01-27T21:35:04.722Z,3.90
2019-01-27T21:37:31.996Z,3.90
2019-01-27T21:39:59.297Z,3.70
2019-01-27T21:42:26.588Z,3.70
2019-01-27T21:44:53.848Z,3.80
2019-01-27T21:47:21.098Z,3.70
2019-01-27T21:49:48.362Z,3.50
2019-01-27T21:52:15.617Z,3.50
2019-01-27T21:54:43.479Z,3.60
2019-01-27T21:57:10.841Z,3.50
2019-01-27T21:59:38.992Z,3.70
2019-01-27T22:02:06.357Z,3.60
2019-01-27T22:04:33.650Z,3.50
2019-01-27T22:07:01.034Z,3.60
2019-01-27T22:09:28.310Z,3.50
2019-01-27T22:11:58.952Z,3.60
2019-01-27T22:14:26.304Z,3.60
2019-01-27T22:16:54.000Z,3.60
2019-01-27T22:19:21.231Z,3.50
2019-01-27T22:21:48.626Z,3.60
2019-01-27T22:24:16.193Z,3.50
2019-01-27T22:26:43.787Z,3.60
2019-01-27T22:29:11.062Z,3.50
2019-01-27T22:31:38.635Z,3.60
2019-01-27T22:34:06.201Z,3.30
2019-01-27T22:36:35.079Z,3.40
2019-01-27T22:39:04.880Z,3.40
2019-01-27T22:41:32.140Z,3.40
2019-01-27T22:43:59.449Z,3.40
2019-01-27T22:46:26.694Z,3.50
2019-01-27T22:48:53.963Z,3.60
2019-01-27T22:51:21.208Z,3.50
2019-01-27T22:53:48.453Z,3.40
2019-01-27T22:56:15.705Z,3.40
2019-01-27T22:58:42.979Z,3.40
2019-01-27T23:01:14.038Z,3.30
2019-01-27T23:03:43.374Z,3.40
2019-01-27T23:06:10.715Z,3.40
2019-01-27T23:08:38.207Z,3.50
2019-01-27T23:11:05.440Z,3.30
2019-01-27T23:13:32.775Z,3.70
2019-01-27T23:16:00.332Z,3.50
2019-01-27T23:18:27.812Z,3.60
2019-01-27T23:20:58.306Z,3.50
2019-01-27T23:23:25.927Z,3.50
2019-01-27T23:25:53.850Z,3.50
2019-01-27T23:28:21.347Z,3.30
2019-01-27T23:30:48.848Z,3.40
2019-01-27T23:33:16.415Z,3.50
2019-01-27T23:35:43.900Z,3.40
2019-01-27T23:38:11.225Z,3.40
2019-01-27T23:40:39.744Z,3.40
2019-01-27T23:43:07.498Z,3.30
2019-01-27T23:45:35.921Z,3.20
2019-01-27T23:48:06.149Z,3.20
2019-01-27T23:50:33.636Z,3.20
2019-01-27T23:53:01.246Z,3.00
2019-01-27T23:55:28.692Z,3.10
2019-01-27T23:57:56.044Z,3.10
